sensor_id;sensor_type;location;lat;lon;timestamp;temperature;humidity
80274;DHT22;69576;51.902;-8.462;2024-03-23T00:56:17;12.60;69.80
80274;DHT22;69576;51.902;-8.462;2024-03-23T00:58:43;12.50;69.20
80274;DHT22;69576;51.902;-8.462;2024-03-23T01:01:09;12.50;69.10
80274;DHT22;69576;51.902;-8.462;2024-03-23T01:03:39;12.50;69.00
80274;DHT22;69576;51.902;-8.462;2024-03-23T01:06:05;12.50;70.00
80274;DHT22;69576;51.902;-8.462;2024-03-23T01:08:30;12.40;69.30
80274;DHT22;69576;51.902;-8.462;2024-03-23T01:11:00;12.40;69.50
80274;DHT22;69576;51.902;-8.462;2024-03-23T01:13:29;12.30;69.70
80274;DHT22;69576;51.902;-8.462;2024-03-23T01:15:56;12.40;70.30
80274;DHT22;69576;51.902;-8.462;2024-03-23T01:18:23;12.40;70.10
80274;DHT22;69576;51.902;-8.462;2024-03-23T01:20:49;12.30;69.80
80274;DHT22;69576;51.902;-8.462;2024-03-23T01:23:17;12.30;69.50
80274;DHT22;69576;51.902;-8.462;2024-03-23T01:25:43;12.30;69.50
80274;DHT22;69576;51.902;-8.462;2024-03-23T01:28:09;12.30;69.80
80274;DHT22;69576;51.902;-8.462;2024-03-23T01:30:35;12.20;70.20
80274;DHT22;69576;51.902;-8.462;2024-03-23T01:33:02;12.20;70.20
80274;DHT22;69576;51.902;-8.462;2024-03-23T01:35:30;12.20;69.50
80274;DHT22;69576;51.902;-8.462;2024-03-23T01:37:58;12.10;69.20
80274;DHT22;69576;51.902;-8.462;2024-03-23T01:40:24;12.10;70.90
80274;DHT22;69576;51.902;-8.462;2024-03-23T01:43:06;12.10;70.60
80274;DHT22;69576;51.902;-8.462;2024-03-23T01:45:39;12.10;70.30
80274;DHT22;69576;51.902;-8.462;2024-03-23T01:48:05;12.10;69.50
80274;DHT22;69576;51.902;-8.462;2024-03-23T01:50:31;12.00;69.60
80274;DHT22;69576;51.902;-8.462;2024-03-23T01:53:02;12.00;69.20
80274;DHT22;69576;51.902;-8.462;2024-03-23T01:55:34;11.90;69.30
80274;DHT22;69576;51.902;-8.462;2024-03-23T01:58:00;11.90;69.90
80274;DHT22;69576;51.902;-8.462;2024-03-23T02:00:28;11.90;69.80
80274;DHT22;69576;51.902;-8.462;2024-03-23T02:02:54;11.90;69.80
80274;DHT22;69576;51.902;-8.462;2024-03-23T02:05:22;11.90;70.20
80274;DHT22;69576;51.902;-8.462;2024-03-23T02:07:51;11.90;70.40
80274;DHT22;69576;51.902;-8.462;2024-03-23T02:10:19;11.90;70.50
80274;DHT22;69576;51.902;-8.462;2024-03-23T02:12:45;11.90;70.70
80274;DHT22;69576;51.902;-8.462;2024-03-23T02:15:12;11.90;70.10
80274;DHT22;69576;51.902;-8.462;2024-03-23T02:17:38;11.90;70.80
80274;DHT22;69576;51.902;-8.462;2024-03-23T02:20:04;11.90;71.10
80274;DHT22;69576;51.902;-8.462;2024-03-23T02:22:38;11.90;71.80
80274;DHT22;69576;51.902;-8.462;2024-03-23T02:25:05;11.90;71.20
80274;DHT22;69576;51.902;-8.462;2024-03-23T02:27:33;11.90;71.10
80274;DHT22;69576;51.902;-8.462;2024-03-23T02:30:01;11.90;71.20
80274;DHT22;69576;51.902;-8.462;2024-03-23T02:32:27;11.90;71.20
80274;DHT22;69576;51.902;-8.462;2024-03-23T02:34:55;11.90;70.10
80274;DHT22;69576;51.902;-8.462;2024-03-23T02:37:21;11.80;70.20
80274;DHT22;69576;51.902;-8.462;2024-03-23T02:39:46;11.80;70.60
80274;DHT22;69576;51.902;-8.462;2024-03-23T02:42:12;11.80;70.80
80274;DHT22;69576;51.902;-8.462;2024-03-23T02:44:38;11.80;71.40
80274;DHT22;69576;51.902;-8.462;2024-03-23T02:47:06;11.80;71.20
80274;DHT22;69576;51.902;-8.462;2024-03-23T02:49:32;11.90;72.10
80274;DHT22;69576;51.902;-8.462;2024-03-23T02:51:57;11.90;72.50
80274;DHT22;69576;51.902;-8.462;2024-03-23T02:54:23;11.90;71.80
80274;DHT22;69576;51.902;-8.462;2024-03-23T02:56:49;11.90;72.50
80274;DHT22;69576;51.902;-8.462;2024-03-23T02:59:17;11.90;72.10
80274;DHT22;69576;51.902;-8.462;2024-03-23T03:01:43;11.90;71.10
80274;DHT22;69576;51.902;-8.462;2024-03-23T03:04:11;11.90;71.00
80274;DHT22;69576;51.902;-8.462;2024-03-23T03:06:37;11.90;71.10
80274;DHT22;69576;51.902;-8.462;2024-03-23T03:09:06;11.90;71.20
80274;DHT22;69576;51.902;-8.462;2024-03-23T03:11:32;11.90;71.10
80274;DHT22;69576;51.902;-8.462;2024-03-23T03:13:57;11.80;71.10
80274;DHT22;69576;51.902;-8.462;2024-03-23T03:16:26;11.80;70.40
80274;DHT22;69576;51.902;-8.462;2024-03-23T03:18:56;11.70;70.70
80274;DHT22;69576;51.902;-8.462;2024-03-23T03:21:21;11.70;70.90
80274;DHT22;69576;51.902;-8.462;2024-03-23T03:23:47;11.80;71.80
80274;DHT22;69576;51.902;-8.462;2024-03-23T03:26:18;11.70;71.30
80274;DHT22;69576;51.902;-8.462;2024-03-23T03:28:43;11.70;72.20
80274;DHT22;69576;51.902;-8.462;2024-03-23T03:31:14;11.80;71.70
80274;DHT22;69576;51.902;-8.462;2024-03-23T03:33:40;11.80;72.50
80274;DHT22;69576;51.902;-8.462;2024-03-23T03:36:06;11.80;71.90
80274;DHT22;69576;51.902;-8.462;2024-03-23T03:38:32;11.80;72.50
80274;DHT22;69576;51.902;-8.462;2024-03-23T03:40:58;11.80;72.70
80274;DHT22;69576;51.902;-8.462;2024-03-23T03:43:24;11.90;72.50
80274;DHT22;69576;51.902;-8.462;2024-03-23T03:45:54;11.80;71.60
80274;DHT22;69576;51.902;-8.462;2024-03-23T03:48:20;11.80;71.50
80274;DHT22;69576;51.902;-8.462;2024-03-23T03:50:45;11.70;71.60
80274;DHT22;69576;51.902;-8.462;2024-03-23T03:53:11;11.70;72.60
80274;DHT22;69576;51.902;-8.462;2024-03-23T03:55:37;11.80;72.30
80274;DHT22;69576;51.902;-8.462;2024-03-23T03:58:03;11.80;72.10
80274;DHT22;69576;51.902;-8.462;2024-03-23T04:00:30;11.80;72.60
80274;DHT22;69576;51.902;-8.462;2024-03-23T04:02:56;11.90;72.70
80274;DHT22;69576;51.902;-8.462;2024-03-23T04:05:22;11.80;72.20
80274;DHT22;69576;51.902;-8.462;2024-03-23T04:07:48;11.80;72.20
80274;DHT22;69576;51.902;-8.462;2024-03-23T04:10:16;11.90;73.30
80274;DHT22;69576;51.902;-8.462;2024-03-23T04:12:43;11.90;73.10
80274;DHT22;69576;51.902;-8.462;2024-03-23T04:15:09;11.90;71.90
80274;DHT22;69576;51.902;-8.462;2024-03-23T04:17:35;11.80;72.10
80274;DHT22;69576;51.902;-8.462;2024-03-23T04:20:04;11.80;72.30
80274;DHT22;69576;51.902;-8.462;2024-03-23T04:22:37;11.80;72.60
80274;DHT22;69576;51.902;-8.462;2024-03-23T04:25:03;11.90;71.80
80274;DHT22;69576;51.902;-8.462;2024-03-23T04:27:37;11.70;71.70
80274;DHT22;69576;51.902;-8.462;2024-03-23T04:30:03;11.70;71.20
80274;DHT22;69576;51.902;-8.462;2024-03-23T04:32:30;11.70;71.20
80274;DHT22;69576;51.902;-8.462;2024-03-23T04:34:55;11.70;71.20
80274;DHT22;69576;51.902;-8.462;2024-03-23T04:37:22;11.70;71.70
80274;DHT22;69576;51.902;-8.462;2024-03-23T04:39:48;11.70;71.30
80274;DHT22;69576;51.902;-8.462;2024-03-23T04:42:16;11.70;71.40
80274;DHT22;69576;51.902;-8.462;2024-03-23T04:44:42;11.70;72.00
80274;DHT22;69576;51.902;-8.462;2024-03-23T04:47:13;11.70;71.80
80274;DHT22;69576;51.902;-8.462;2024-03-23T04:49:39;11.70;71.20
80274;DHT22;69576;51.902;-8.462;2024-03-23T04:52:05;11.70;71.30
80274;DHT22;69576;51.902;-8.462;2024-03-23T04:54:33;11.70;72.50
80274;DHT22;69576;51.902;-8.462;2024-03-23T04:57:01;11.70;73.20
80274;DHT22;69576;51.902;-8.462;2024-03-23T04:59:26;11.70;71.80
80274;DHT22;69576;51.902;-8.462;2024-03-23T05:01:52;11.70;72.00
80274;DHT22;69576;51.902;-8.462;2024-03-23T05:04:20;11.70;71.50
80274;DHT22;69576;51.902;-8.462;2024-03-23T05:06:46;11.70;72.20
80274;DHT22;69576;51.902;-8.462;2024-03-23T05:09:11;11.70;71.40
80274;DHT22;69576;51.902;-8.462;2024-03-23T05:11:43;11.70;72.00
80274;DHT22;69576;51.902;-8.462;2024-03-23T05:14:13;11.70;72.20
80274;DHT22;69576;51.902;-8.462;2024-03-23T05:16:39;11.70;72.40
80274;DHT22;69576;51.902;-8.462;2024-03-23T05:19:05;11.70;73.30
80274;DHT22;69576;51.902;-8.462;2024-03-23T05:21:30;11.80;73.10
80274;DHT22;69576;51.902;-8.462;2024-03-23T05:23:58;11.80;72.90
80274;DHT22;69576;51.902;-8.462;2024-03-23T05:26:24;11.80;72.20
80274;DHT22;69576;51.902;-8.462;2024-03-23T05:28:50;11.70;72.80
80274;DHT22;69576;51.902;-8.462;2024-03-23T05:31:26;11.70;72.30
80274;DHT22;69576;51.902;-8.462;2024-03-23T05:33:52;11.70;72.20
80274;DHT22;69576;51.902;-8.462;2024-03-23T05:36:23;11.70;72.50
80274;DHT22;69576;51.902;-8.462;2024-03-23T05:38:51;11.70;72.80
80274;DHT22;69576;51.902;-8.462;2024-03-23T05:41:17;11.70;72.30
80274;DHT22;69576;51.902;-8.462;2024-03-23T05:43:43;11.80;72.80
80274;DHT22;69576;51.902;-8.462;2024-03-23T05:46:08;11.80;73.40
80274;DHT22;69576;51.902;-8.462;2024-03-23T05:48:34;11.90;72.80
80274;DHT22;69576;51.902;-8.462;2024-03-23T05:51:00;11.80;71.80
80274;DHT22;69576;51.902;-8.462;2024-03-23T05:53:26;11.70;71.50
80274;DHT22;69576;51.902;-8.462;2024-03-23T05:56:01;11.70;72.20
80274;DHT22;69576;51.902;-8.462;2024-03-23T05:58:32;11.70;72.90
80274;DHT22;69576;51.902;-8.462;2024-03-23T06:00:59;11.70;72.60
80274;DHT22;69576;51.902;-8.462;2024-03-23T06:03:29;11.80;73.30
80274;DHT22;69576;51.902;-8.462;2024-03-23T06:05:55;11.80;73.40
80274;DHT22;69576;51.902;-8.462;2024-03-23T06:08:22;11.90;73.20
80274;DHT22;69576;51.902;-8.462;2024-03-23T06:10:50;11.90;72.70
80274;DHT22;69576;51.902;-8.462;2024-03-23T06:13:16;11.80;72.80
80274;DHT22;69576;51.902;-8.462;2024-03-23T06:15:42;11.80;72.90
80274;DHT22;69576;51.902;-8.462;2024-03-23T06:18:08;11.90;73.20
80274;DHT22;69576;51.902;-8.462;2024-03-23T06:20:34;11.90;72.70
80274;DHT22;69576;51.902;-8.462;2024-03-23T06:23:03;11.90;72.90
80274;DHT22;69576;51.902;-8.462;2024-03-23T06:25:29;11.90;73.00
80274;DHT22;69576;51.902;-8.462;2024-03-23T06:27:55;11.80;72.50
80274;DHT22;69576;51.902;-8.462;2024-03-23T06:30:23;11.80;72.60
80274;DHT22;69576;51.902;-8.462;2024-03-23T06:32:49;11.80;73.00
80274;DHT22;69576;51.902;-8.462;2024-03-23T06:35:14;11.70;72.30
80274;DHT22;69576;51.902;-8.462;2024-03-23T06:37:40;11.70;72.20
80274;DHT22;69576;51.902;-8.462;2024-03-23T06:40:08;11.70;72.90
80274;DHT22;69576;51.902;-8.462;2024-03-23T06:42:35;11.80;73.40
80274;DHT22;69576;51.902;-8.462;2024-03-23T06:45:02;11.90;73.60
80274;DHT22;69576;51.902;-8.462;2024-03-23T06:47:30;11.90;73.30
80274;DHT22;69576;51.902;-8.462;2024-03-23T06:49:58;11.90;73.40
80274;DHT22;69576;51.902;-8.462;2024-03-23T06:52:24;11.90;73.40
80274;DHT22;69576;51.902;-8.462;2024-03-23T06:54:50;12.00;73.50
80274;DHT22;69576;51.902;-8.462;2024-03-23T06:57:16;12.00;73.30
80274;DHT22;69576;51.902;-8.462;2024-03-23T06:59:44;12.00;73.20
80274;DHT22;69576;51.902;-8.462;2024-03-23T07:02:09;12.10;73.70
80274;DHT22;69576;51.902;-8.462;2024-03-23T07:04:37;12.20;73.60
80274;DHT22;69576;51.902;-8.462;2024-03-23T07:07:05;12.20;73.00
80274;DHT22;69576;51.902;-8.462;2024-03-23T07:09:33;12.20;72.70
80274;DHT22;69576;51.902;-8.462;2024-03-23T07:11:59;12.20;72.20
80274;DHT22;69576;51.902;-8.462;2024-03-23T07:14:25;12.20;72.20
80274;DHT22;69576;51.902;-8.462;2024-03-23T07:16:51;12.20;73.10
80274;DHT22;69576;51.902;-8.462;2024-03-23T07:19:17;12.30;73.00
80274;DHT22;69576;51.902;-8.462;2024-03-23T07:21:44;12.30;73.00
80274;DHT22;69576;51.902;-8.462;2024-03-23T07:24:10;12.40;72.80
80274;DHT22;69576;51.902;-8.462;2024-03-23T07:26:41;12.40;72.30
80274;DHT22;69576;51.902;-8.462;2024-03-23T07:29:07;12.50;73.20
80274;DHT22;69576;51.902;-8.462;2024-03-23T07:31:33;12.50;72.30
80274;DHT22;69576;51.902;-8.462;2024-03-23T07:33:58;12.50;72.40
80274;DHT22;69576;51.902;-8.462;2024-03-23T07:36:24;12.50;72.50
80274;DHT22;69576;51.902;-8.462;2024-03-23T07:38:50;12.50;72.10
80274;DHT22;69576;51.902;-8.462;2024-03-23T07:41:18;12.70;72.60
80274;DHT22;69576;51.902;-8.462;2024-03-23T07:43:44;12.70;71.90
80274;DHT22;69576;51.902;-8.462;2024-03-23T07:46:10;12.90;73.00
80274;DHT22;69576;51.902;-8.462;2024-03-23T07:48:37;12.90;72.40
80274;DHT22;69576;51.902;-8.462;2024-03-23T07:51:22;13.10;72.30
80274;DHT22;69576;51.902;-8.462;2024-03-23T07:53:49;13.10;72.40
80274;DHT22;69576;51.902;-8.462;2024-03-23T07:56:15;13.30;72.00
80274;DHT22;69576;51.902;-8.462;2024-03-23T07:58:42;13.40;71.70
80274;DHT22;69576;51.902;-8.462;2024-03-23T08:01:12;13.50;71.80
80274;DHT22;69576;51.902;-8.462;2024-03-23T08:03:39;13.70;72.00
80274;DHT22;69576;51.902;-8.462;2024-03-23T08:06:19;13.90;71.60
80274;DHT22;69576;51.902;-8.462;2024-03-23T08:08:47;14.00;71.50
80274;DHT22;69576;51.902;-8.462;2024-03-23T08:11:15;14.10;71.00
80274;DHT22;69576;51.902;-8.462;2024-03-23T08:13:42;14.20;70.60
80274;DHT22;69576;51.902;-8.462;2024-03-23T08:16:10;14.30;70.30
80274;DHT22;69576;51.902;-8.462;2024-03-23T08:18:37;14.40;70.10
80274;DHT22;69576;51.902;-8.462;2024-03-23T08:21:04;14.50;69.70
80274;DHT22;69576;51.902;-8.462;2024-03-23T08:23:32;14.60;69.50
80274;DHT22;69576;51.902;-8.462;2024-03-23T08:26:06;14.80;69.30
80274;DHT22;69576;51.902;-8.462;2024-03-23T08:28:32;14.90;69.00
80274;DHT22;69576;51.902;-8.462;2024-03-23T08:31:02;14.90;68.60
80274;DHT22;69576;51.902;-8.462;2024-03-23T08:33:28;14.90;68.30
80274;DHT22;69576;51.902;-8.462;2024-03-23T08:35:58;14.90;68.30
80274;DHT22;69576;51.902;-8.462;2024-03-23T08:38:25;14.90;67.70
80274;DHT22;69576;51.902;-8.462;2024-03-23T08:41:07;14.90;67.20
80274;DHT22;69576;51.902;-8.462;2024-03-23T08:43:37;14.80;67.10
80274;DHT22;69576;51.902;-8.462;2024-03-23T08:46:12;14.80;67.20
80274;DHT22;69576;51.902;-8.462;2024-03-23T08:48:42;14.70;67.30
80274;DHT22;69576;51.902;-8.462;2024-03-23T08:51:13;14.70;67.10
80274;DHT22;69576;51.902;-8.462;2024-03-23T08:53:39;14.60;67.10
80274;DHT22;69576;51.902;-8.462;2024-03-23T08:56:07;14.70;67.10
80274;DHT22;69576;51.902;-8.462;2024-03-23T08:58:34;14.70;67.40
80274;DHT22;69576;51.902;-8.462;2024-03-23T09:01:12;14.90;67.80
80274;DHT22;69576;51.902;-8.462;2024-03-23T09:03:41;15.00;67.70
80274;DHT22;69576;51.902;-8.462;2024-03-23T09:06:12;15.00;67.50
80274;DHT22;69576;51.902;-8.462;2024-03-23T09:08:38;15.20;67.30
80274;DHT22;69576;51.902;-8.462;2024-03-23T09:11:08;15.30;67.10
80274;DHT22;69576;51.902;-8.462;2024-03-23T09:13:36;15.50;67.30
80274;DHT22;69576;51.902;-8.462;2024-03-23T09:16:02;15.70;66.90
80274;DHT22;69576;51.902;-8.462;2024-03-23T09:18:30;15.80;66.40
80274;DHT22;69576;51.902;-8.462;2024-03-23T09:20:59;16.00;66.60
80274;DHT22;69576;51.902;-8.462;2024-03-23T09:23:25;16.00;63.50
80274;DHT22;69576;51.902;-8.462;2024-03-23T09:25:50;16.00;62.70
80274;DHT22;69576;51.902;-8.462;2024-03-23T09:28:18;15.80;62.10
80274;DHT22;69576;51.902;-8.462;2024-03-23T09:30:44;15.80;61.10
80274;DHT22;69576;51.902;-8.462;2024-03-23T09:33:13;15.80;62.00
80274;DHT22;69576;51.902;-8.462;2024-03-23T09:35:39;15.80;61.20
80274;DHT22;69576;51.902;-8.462;2024-03-23T09:38:07;15.80;59.90
80274;DHT22;69576;51.902;-8.462;2024-03-23T09:40:35;15.80;59.90
80274;DHT22;69576;51.902;-8.462;2024-03-23T09:43:06;15.80;60.90
80274;DHT22;69576;51.902;-8.462;2024-03-23T09:45:36;15.80;61.20
80274;DHT22;69576;51.902;-8.462;2024-03-23T09:48:06;15.80;61.80
80274;DHT22;69576;51.902;-8.462;2024-03-23T09:50:33;15.90;62.20
80274;DHT22;69576;51.902;-8.462;2024-03-23T09:53:01;16.00;62.60
80274;DHT22;69576;51.902;-8.462;2024-03-23T09:55:27;16.10;62.90
80274;DHT22;69576;51.902;-8.462;2024-03-23T09:57:53;16.40;63.00
80274;DHT22;69576;51.902;-8.462;2024-03-23T10:00:18;16.50;62.80
80274;DHT22;69576;51.902;-8.462;2024-03-23T10:02:45;16.50;62.60
80274;DHT22;69576;51.902;-8.462;2024-03-23T10:05:21;16.60;62.50
80274;DHT22;69576;51.902;-8.462;2024-03-23T10:07:51;16.80;62.30
80274;DHT22;69576;51.902;-8.462;2024-03-23T10:10:18;17.00;62.40
80274;DHT22;69576;51.902;-8.462;2024-03-23T10:12:45;17.20;62.10
80274;DHT22;69576;51.902;-8.462;2024-03-23T10:15:23;17.40;61.80
80274;DHT22;69576;51.902;-8.462;2024-03-23T10:17:49;17.60;61.20
80274;DHT22;69576;51.902;-8.462;2024-03-23T10:20:22;17.80;61.20
80274;DHT22;69576;51.902;-8.462;2024-03-23T10:22:51;18.10;61.40
80274;DHT22;69576;51.902;-8.462;2024-03-23T10:25:17;18.40;61.30
80274;DHT22;69576;51.902;-8.462;2024-03-23T10:27:43;18.80;60.90
80274;DHT22;69576;51.902;-8.462;2024-03-23T10:30:11;19.10;60.70
80274;DHT22;69576;51.902;-8.462;2024-03-23T10:32:37;19.30;60.10
80274;DHT22;69576;51.902;-8.462;2024-03-23T10:35:22;19.50;59.70
80274;DHT22;69576;51.902;-8.462;2024-03-23T10:37:48;19.50;58.70
80274;DHT22;69576;51.902;-8.462;2024-03-23T10:40:17;19.40;58.80
80274;DHT22;69576;51.902;-8.462;2024-03-23T10:42:45;19.20;58.80
80274;DHT22;69576;51.902;-8.462;2024-03-23T10:45:12;18.90;58.70
80274;DHT22;69576;51.902;-8.462;2024-03-23T10:47:40;18.60;58.50
80274;DHT22;69576;51.902;-8.462;2024-03-23T10:50:06;18.40;58.70
80274;DHT22;69576;51.902;-8.462;2024-03-23T10:52:37;18.20;59.00
80274;DHT22;69576;51.902;-8.462;2024-03-23T10:55:09;18.00;59.40
80274;DHT22;69576;51.902;-8.462;2024-03-23T10:57:55;18.00;59.70
80274;DHT22;69576;51.902;-8.462;2024-03-23T11:00:22;18.10;59.80
80274;DHT22;69576;51.902;-8.462;2024-03-23T11:02:51;18.20;60.40
80274;DHT22;69576;51.902;-8.462;2024-03-23T11:07:53;18.30;59.80
80274;DHT22;69576;51.902;-8.462;2024-03-23T11:10:29;18.20;59.90
80274;DHT22;69576;51.902;-8.462;2024-03-23T11:12:56;18.10;59.80
80274;DHT22;69576;51.902;-8.462;2024-03-23T11:15:22;18.00;59.90
80274;DHT22;69576;51.902;-8.462;2024-03-23T11:18:19;17.80;59.90
80274;DHT22;69576;51.902;-8.462;2024-03-23T11:20:45;17.80;60.00
80274;DHT22;69576;51.902;-8.462;2024-03-23T11:23:27;17.60;60.20
80274;DHT22;69576;51.902;-8.462;2024-03-23T11:25:53;17.50;60.40
80274;DHT22;69576;51.902;-8.462;2024-03-23T11:28:18;17.50;60.60
80274;DHT22;69576;51.902;-8.462;2024-03-23T11:30:44;17.50;60.80
80274;DHT22;69576;51.902;-8.462;2024-03-23T11:33:12;17.60;60.90
80274;DHT22;69576;51.902;-8.462;2024-03-23T11:35:41;17.70;60.80
80274;DHT22;69576;51.902;-8.462;2024-03-23T11:38:19;17.80;60.80
80274;DHT22;69576;51.902;-8.462;2024-03-23T11:40:48;17.80;60.60
80274;DHT22;69576;51.902;-8.462;2024-03-23T11:43:18;17.80;60.60
80274;DHT22;69576;51.902;-8.462;2024-03-23T11:45:50;17.80;60.50
80274;DHT22;69576;51.902;-8.462;2024-03-23T11:48:22;17.80;60.50
80274;DHT22;69576;51.902;-8.462;2024-03-23T11:50:49;17.80;60.50
80274;DHT22;69576;51.902;-8.462;2024-03-23T11:53:19;17.80;60.50
80274;DHT22;69576;51.902;-8.462;2024-03-23T11:55:56;17.90;60.50
80274;DHT22;69576;51.902;-8.462;2024-03-23T11:58:24;17.90;60.40
80274;DHT22;69576;51.902;-8.462;2024-03-23T12:03:21;17.80;60.30
80274;DHT22;69576;51.902;-8.462;2024-03-23T12:05:54;17.80;60.20
80274;DHT22;69576;51.902;-8.462;2024-03-23T12:13:17;17.50;60.40
80274;DHT22;69576;51.902;-8.462;2024-03-23T12:15:44;17.50;60.30
80274;DHT22;69576;51.902;-8.462;2024-03-23T12:18:12;17.50;60.40
80274;DHT22;69576;51.902;-8.462;2024-03-23T12:20:38;17.50;60.50
80274;DHT22;69576;51.902;-8.462;2024-03-23T12:23:12;17.50;60.70
80274;DHT22;69576;51.902;-8.462;2024-03-23T12:25:39;17.50;60.60
80274;DHT22;69576;51.902;-8.462;2024-03-23T12:28:06;17.50;60.60
80274;DHT22;69576;51.902;-8.462;2024-03-23T12:30:49;17.60;60.70
80274;DHT22;69576;51.902;-8.462;2024-03-23T12:33:15;17.60;60.50
80274;DHT22;69576;51.902;-8.462;2024-03-23T12:35:43;17.70;60.50
80274;DHT22;69576;51.902;-8.462;2024-03-23T12:38:09;17.80;60.50
80274;DHT22;69576;51.902;-8.462;2024-03-23T12:40:37;17.90;60.40
80274;DHT22;69576;51.902;-8.462;2024-03-23T12:43:03;18.00;60.30
80274;DHT22;69576;51.902;-8.462;2024-03-23T12:45:29;18.10;60.00
80274;DHT22;69576;51.902;-8.462;2024-03-23T12:47:59;18.20;60.20
80274;DHT22;69576;51.902;-8.462;2024-03-23T12:50:27;18.30;60.00
80274;DHT22;69576;51.902;-8.462;2024-03-23T12:52:53;18.30;60.00
80274;DHT22;69576;51.902;-8.462;2024-03-23T12:55:19;18.30;60.00
80274;DHT22;69576;51.902;-8.462;2024-03-23T12:57:50;18.30;59.90
80274;DHT22;69576;51.902;-8.462;2024-03-23T13:00:18;18.30;59.70
80274;DHT22;69576;51.902;-8.462;2024-03-23T13:02:46;18.20;59.50
80274;DHT22;69576;51.902;-8.462;2024-03-23T13:05:14;18.10;59.60
80274;DHT22;69576;51.902;-8.462;2024-03-23T13:07:40;18.10;59.60
80274;DHT22;69576;51.902;-8.462;2024-03-23T13:10:06;18.10;59.60
80274;DHT22;69576;51.902;-8.462;2024-03-23T13:12:33;18.00;59.70
80274;DHT22;69576;51.902;-8.462;2024-03-23T13:14:59;18.00;59.60
80274;DHT22;69576;51.902;-8.462;2024-03-23T13:17:26;18.00;59.60
80274;DHT22;69576;51.902;-8.462;2024-03-23T13:19:53;18.00;59.70
80274;DHT22;69576;51.902;-8.462;2024-03-23T13:22:19;18.00;59.70
80274;DHT22;69576;51.902;-8.462;2024-03-23T13:24:44;18.00;59.70
80274;DHT22;69576;51.902;-8.462;2024-03-23T13:27:12;18.00;59.70
80274;DHT22;69576;51.902;-8.462;2024-03-23T13:29:41;18.00;59.60
80274;DHT22;69576;51.902;-8.462;2024-03-23T13:32:07;17.90;59.40
80274;DHT22;69576;51.902;-8.462;2024-03-23T13:34:33;17.80;59.60
80274;DHT22;69576;51.902;-8.462;2024-03-23T13:37:00;17.80;59.80
80274;DHT22;69576;51.902;-8.462;2024-03-23T13:39:26;17.60;58.40
80274;DHT22;69576;51.902;-8.462;2024-03-23T13:41:55;17.50;57.40
80274;DHT22;69576;51.902;-8.462;2024-03-23T13:44:23;17.20;56.50
80274;DHT22;69576;51.902;-8.462;2024-03-23T13:46:49;17.00;56.20
80274;DHT22;69576;51.902;-8.462;2024-03-23T13:49:29;16.90;56.20
80274;DHT22;69576;51.902;-8.462;2024-03-23T13:51:55;16.60;55.60
80274;DHT22;69576;51.902;-8.462;2024-03-23T13:54:22;16.40;55.80
80274;DHT22;69576;51.902;-8.462;2024-03-23T13:56:51;16.20;55.50
80274;DHT22;69576;51.902;-8.462;2024-03-23T13:59:20;16.00;55.80
80274;DHT22;69576;51.902;-8.462;2024-03-23T14:01:46;15.90;55.90
80274;DHT22;69576;51.902;-8.462;2024-03-23T14:04:13;15.80;56.10
80274;DHT22;69576;51.902;-8.462;2024-03-23T14:06:39;15.60;55.90
80274;DHT22;69576;51.902;-8.462;2024-03-23T14:09:05;15.60;55.60
80274;DHT22;69576;51.902;-8.462;2024-03-23T14:11:40;15.50;56.00
80274;DHT22;69576;51.902;-8.462;2024-03-23T14:14:07;15.50;56.10
80274;DHT22;69576;51.902;-8.462;2024-03-23T14:16:36;15.50;55.90
80274;DHT22;69576;51.902;-8.462;2024-03-23T14:19:04;15.40;55.50
80274;DHT22;69576;51.902;-8.462;2024-03-23T14:21:33;15.30;55.40
80274;DHT22;69576;51.902;-8.462;2024-03-23T14:24:02;15.30;55.10
80274;DHT22;69576;51.902;-8.462;2024-03-23T14:26:28;15.20;54.70
80274;DHT22;69576;51.902;-8.462;2024-03-23T14:28:56;15.20;55.10
80274;DHT22;69576;51.902;-8.462;2024-03-23T14:31:21;15.20;55.20
80274;DHT22;69576;51.902;-8.462;2024-03-23T14:33:47;15.20;55.00
80274;DHT22;69576;51.902;-8.462;2024-03-23T14:36:14;15.20;54.50
80274;DHT22;69576;51.902;-8.462;2024-03-23T14:38:42;15.20;54.10
80274;DHT22;69576;51.902;-8.462;2024-03-23T14:41:08;15.10;54.10
80274;DHT22;69576;51.902;-8.462;2024-03-23T14:43:33;15.10;54.50
80274;DHT22;69576;51.902;-8.462;2024-03-23T14:46:13;15.20;54.90
80274;DHT22;69576;51.902;-8.462;2024-03-23T14:48:39;15.20;55.40
80274;DHT22;69576;51.902;-8.462;2024-03-23T14:51:06;15.30;56.00
80274;DHT22;69576;51.902;-8.462;2024-03-23T14:53:37;15.40;56.40
80274;DHT22;69576;51.902;-8.462;2024-03-23T14:56:05;15.50;56.70
80274;DHT22;69576;51.902;-8.462;2024-03-23T14:58:33;15.50;56.90
80274;DHT22;69576;51.902;-8.462;2024-03-23T15:01:08;15.60;57.10
80274;DHT22;69576;51.902;-8.462;2024-03-23T15:03:37;15.60;57.30
80274;DHT22;69576;51.902;-8.462;2024-03-23T15:06:04;15.60;57.40
80274;DHT22;69576;51.902;-8.462;2024-03-23T15:08:30;15.70;57.40
80274;DHT22;69576;51.902;-8.462;2024-03-23T15:11:00;15.80;57.50
80274;DHT22;69576;51.902;-8.462;2024-03-23T15:13:26;15.80;57.60
80274;DHT22;69576;51.902;-8.462;2024-03-23T15:15:51;15.80;57.80
80274;DHT22;69576;51.902;-8.462;2024-03-23T15:18:17;15.80;57.90
80274;DHT22;69576;51.902;-8.462;2024-03-23T15:20:54;15.80;58.00
80274;DHT22;69576;51.902;-8.462;2024-03-23T15:23:20;15.80;58.20
80274;DHT22;69576;51.902;-8.462;2024-03-23T15:26:00;15.90;58.20
80274;DHT22;69576;51.902;-8.462;2024-03-23T15:28:26;15.80;58.40
80274;DHT22;69576;51.902;-8.462;2024-03-23T15:31:03;15.90;58.40
80274;DHT22;69576;51.902;-8.462;2024-03-23T15:33:29;15.90;58.50
80274;DHT22;69576;51.902;-8.462;2024-03-23T15:36:01;15.90;58.50
80274;DHT22;69576;51.902;-8.462;2024-03-23T15:38:27;15.90;58.50
80274;DHT22;69576;51.902;-8.462;2024-03-23T15:40:56;15.90;58.60
80274;DHT22;69576;51.902;-8.462;2024-03-23T15:43:21;15.90;58.80
80274;DHT22;69576;51.902;-8.462;2024-03-23T15:46:00;16.00;59.00
80274;DHT22;69576;51.902;-8.462;2024-03-23T15:48:32;16.00;59.00
80274;DHT22;69576;51.902;-8.462;2024-03-23T15:50:59;16.00;59.10
80274;DHT22;69576;51.902;-8.462;2024-03-23T15:53:26;16.00;59.00
80274;DHT22;69576;51.902;-8.462;2024-03-23T15:56:00;16.00;59.00
80274;DHT22;69576;51.902;-8.462;2024-03-23T15:58:26;16.00;59.10
80274;DHT22;69576;51.902;-8.462;2024-03-23T16:01:03;16.00;59.10
80274;DHT22;69576;51.902;-8.462;2024-03-23T16:03:29;16.00;59.10
80274;DHT22;69576;51.902;-8.462;2024-03-23T16:06:01;16.00;59.20
80274;DHT22;69576;51.902;-8.462;2024-03-23T16:08:30;16.00;59.40
80274;DHT22;69576;51.902;-8.462;2024-03-23T16:11:04;16.00;59.40
80274;DHT22;69576;51.902;-8.462;2024-03-23T16:13:31;16.00;59.60
80274;DHT22;69576;51.902;-8.462;2024-03-23T16:16:01;15.90;59.40
80274;DHT22;69576;51.902;-8.462;2024-03-23T16:18:29;15.80;59.50
80274;DHT22;69576;51.902;-8.462;2024-03-23T16:20:56;15.80;59.60
80274;DHT22;69576;51.902;-8.462;2024-03-23T16:23:22;15.80;59.70
80274;DHT22;69576;51.902;-8.462;2024-03-23T16:25:49;15.80;60.00